Flint, MI

11:15 AM EDT on April 27, 2017 (GMT -0400)
KC8EEL-FLINT | | Change Station
Active Advisory: Special Statement

Elev 756 ft 42.99 °N, 83.69 °W | Updated 16 seconds ago

Mostly Cloudy
Mostly Cloudy
72.7 °F
Feels Like 76 °F
N
4.2
Wind Variable Wind from SSE

Today
High -- | Low -- °F
--% Chance of Precip.
Yesterday
High -- | Low -- °F
Precip. -- in
Pressure 29.46 in
Visibility 10.0 miles
Clouds Few 4200 ft
Scattered Clouds 10000 ft
Heat Index 76 °F
Dew Point 58 °F
Humidity 59%
Rainfall 0.02 in
Snow Depth Not available.
6:33 AM 8:31 PM
New Moon, 2% visible
METAR KFNT 271453Z 18023G33KT 10SM FEW042 SCT100 21/12 A2947 RMK AO2 PK WND 20037/1420 SLP974 T02110122 50002
Pressure 29.46 in
Visibility 10.0 miles
Clouds Few 4200 ft
Scattered Clouds 10000 ft
Heat Index 76 °F
Dew Point 58 °F
Humidity 59%
Rainfall 0.02 in
Snow Depth Not available.
6:33 AM 8:31 PM
New Moon, 2% visible
METAR KFNT 271453Z 18023G33KT 10SM FEW042 SCT100 21/12 A2947 RMK AO2 PK WND 20037/1420 SLP974 T02110122 50002

Get Your Daily Forecast Email!

Thanks for signing up!

Be on the lookout for a verification email in your inbox.

You'll start receiving severe weather alerts in your inbox..

×

10-Day Weather Forecast

Almanac

Astronomy

Apr. 27, 2017 Rise Set
Actual Time
Civil Twilight
Nautical Twilight
Astronomical Twilight
Moon
Length of Visible Light
Length of Day
Tomorrow will be .
, % of the Moon is Illuminated

Today's Extremes

State Highs State Lows

Community

WunderPhotos

WunderBlog® & News

Nearby

Air Quality

  Air Quality AQ Index Pollutant
Not available.

Snow Depth

Station Depth Elevation

Earthquake Activity

City Distance Mag. Time & Date
Minimum magnitude displayed is 2.5.

Coastal Water Temperatures

Place Temperature

Stations

Nearby Weather Stations

Station Location Temp. Windchill Dew Point Humidity Wind Precip. Elev Updated Type
                   

Watches & Warnings

Special Statement
Issued: 10:36 AM EDT Apr. 27, 2017 – National Weather Service

... South to southwest winds gusting to around 45 mph...

A strong cold front will track through Southeast Michigan,
producing south to southwest winds gusts around 45 mph by noon.
Gusts could briefly exceed 45 mph across the Saginaw Valley. In
addition, showers and possible thunderstorms will move into the
area, mainly east of U.S. 23. Any thunderstorm that develops will
be capable of producing stronger winds of 50 mph or greater.



Sf

1036 am EDT Thu Apr 27 2017

... South to southwest winds gusting to around 45 mph...

A strong cold front will track through Southeast Michigan,
producing south to southwest winds gusts around 45 mph by noon.
Gusts could briefly exceed 45 mph across the Saginaw Valley. In
addition, showers and possible thunderstorms will move into the
area, mainly east of U.S. 23. Any thunderstorm that develops will
be capable of producing stronger winds of 50 mph or greater.



Sf